Time;durP1;ratioP1;P1;durP2;ratioP2;P2;SDS_P1;SDS_P2;PMS_P1;PMS_P2;Temp;Humidity;BMP_temperature;BMP_pressure;BME280_temperature;BME280_humidity;BME280_pressure;Samples;Min_cycle;Max_cycle;Signal;HPM_P1;HPM_P2
2023/12/19 00:01:30;;;;;;;24.70;7.73;;;;;;;;;;6090549;23;20629;-89
2023/12/19 00:04:43;;;;;;;13.73;7.17;;;;;;;;;;6090224;23;20194;-86
2023/12/19 00:07:54;;;;;;;21.17;8.63;;;;;;;;;;6090066;23;20169;-85
2023/12/19 00:11:08;;;;;;;21.30;9.70;;;;;;;;;;6090652;23;20461;-88
2023/12/19 00:14:20;;;;;;;13.80;6.50;;;;;;;;;;6089877;23;20559;-88
2023/12/19 00:17:31;;;;;;;36.67;9.90;;;;;;;;;;6091357;23;20260;-85
2023/12/19 00:20:44;;;;;;;48.77;10.93;;;;;;;;;;6091200;23;20174;-88
2023/12/19 00:23:56;;;;;;;32.30;8.03;;;;;;;;;;6089640;23;20174;-89
2023/12/19 00:27:08;;;;;;;65.90;8.80;;;;;;;;;;6106122;23;20181;-88
2023/12/19 00:30:19;;;;;;;53.90;7.13;;;;;;;;;;6090142;23;20174;-89
2023/12/19 00:33:30;;;;;;;42.67;6.77;;;;;;;;;;6089654;23;20214;-88
2023/12/19 00:36:43;;;;;;;50.97;7.10;;;;;;;;;;6088904;23;20554;-89
2023/12/19 00:39:54;;;;;;;46.10;7.50;;;;;;;;;;6090313;23;20174;-88
2023/12/19 00:43:05;;;;;;;43.47;6.37;;;;;;;;;;6089930;23;20186;-90
2023/12/19 00:46:16;;;;;;;60.43;8.17;;;;;;;;;;6090986;23;20197;-87
2023/12/19 00:49:27;;;;;;;17.33;6.40;;;;;;;;;;6088559;23;20566;-88
2023/12/19 00:52:40;;;;;;;46.20;7.67;;;;;;;;;;6088584;23;20173;-89
2023/12/19 00:55:51;;;;;;;77.60;8.70;;;;;;;;;;6087699;23;20166;-87
2023/12/19 00:59:05;;;;;;;36.77;7.43;;;;;;;;;;6091875;23;20174;-89
2023/12/19 01:02:16;;;;;;;47.40;7.23;;;;;;;;;;6089329;23;20198;-89
2023/12/19 01:05:27;;;;;;;29.17;7.13;;;;;;;;;;6087402;23;20218;-88
2023/12/19 01:08:40;;;;;;;34.40;9.07;;;;;;;;;;6088615;23;20247;-89
2023/12/19 01:11:52;;;;;;;32.00;7.87;;;;;;;;;;6088688;23;20249;-88
2023/12/19 01:15:03;;;;;;;39.93;9.10;;;;;;;;;;6089859;23;20174;-90
2023/12/19 01:18:14;;;;;;;57.50;6.47;;;;;;;;;;6088269;23;20177;-88
2023/12/19 01:21:26;;;;;;;50.00;7.93;;;;;;;;;;6088045;23;20178;-86
2023/12/19 01:24:39;;;;;;;31.67;6.97;;;;;;;;;;6094038;23;20182;-85
2023/12/19 01:27:50;;;;;;;30.20;7.50;;;;;;;;;;6089753;23;20173;-86
2023/12/19 01:31:01;;;;;;;18.37;7.70;;;;;;;;;;6088751;23;20249;-89
2023/12/19 01:34:13;;;;;;;31.67;7.73;;;;;;;;;;6088183;23;20174;-89
2023/12/19 01:37:25;;;;;;;28.30;7.33;;;;;;;;;;6087287;23;20170;-90
2023/12/19 01:40:38;;;;;;;38.00;7.93;;;;;;;;;;6088127;23;20170;-88
2023/12/19 01:43:50;;;;;;;37.63;6.83;;;;;;;;;;6088510;23;20202;-90
2023/12/19 01:47:02;;;;;;;35.97;6.90;;;;;;;;;;6088851;23;20311;-85
2023/12/19 01:50:14;;;;;;;31.93;6.87;;;;;;;;;;6089476;23;20174;-86
2023/12/19 01:53:25;;;;;;;27.03;6.67;;;;;;;;;;6089454;23;20170;-88
2023/12/19 01:56:39;;;;;;;45.97;7.10;;;;;;;;;;6089616;23;20614;-88
2023/12/19 01:59:50;;;;;;;30.83;6.93;;;;;;;;;;6092046;23;20177;-89
2023/12/19 02:03:02;;;;;;;24.50;6.30;;;;;;;;;;6059418;23;20199;-87
2023/12/19 02:06:14;;;;;;;32.50;5.97;;;;;;;;;;6060443;23;20194;-91
2023/12/19 02:09:26;;;;;;;33.80;6.00;;;;;;;;;;6060435;23;20628;-88
2023/12/19 02:12:39;;;;;;;26.77;6.93;;;;;;;;;;6059983;23;20315;-91
2023/12/19 02:15:51;;;;;;;16.50;6.40;;;;;;;;;;6059893;23;20174;-87
2023/12/19 02:19:03;;;;;;;23.30;6.60;;;;;;;;;;6060582;23;20219;-88
2023/12/19 02:22:14;;;;;;;34.53;5.90;;;;;;;;;;6060698;23;20209;-89
2023/12/19 02:25:27;;;;;;;29.20;6.50;;;;;;;;;;6061263;23;20195;-90
2023/12/19 02:28:38;;;;;;;24.10;6.13;;;;;;;;;;6059894;23;20178;-86
2023/12/19 02:31:50;;;;;;;45.70;6.57;;;;;;;;;;6060633;23;20228;-87
2023/12/19 02:35:01;;;;;;;20.50;6.77;;;;;;;;;;6060434;23;20171;-88
2023/12/19 02:38:12;;;;;;;33.20;6.63;;;;;;;;;;6060433;23;20266;-91
2023/12/19 02:41:25;;;;;;;19.07;6.30;;;;;;;;;;6059847;23;20238;-88
2023/12/19 02:44:36;;;;;;;20.13;5.90;;;;;;;;;;6061144;23;20175;-90
2023/12/19 02:47:48;;;;;;;42.07;5.70;;;;;;;;;;6061745;23;20170;-86
2023/12/19 02:50:59;;;;;;;21.93;5.93;;;;;;;;;;6061749;23;20187;-89
2023/12/19 02:54:11;;;;;;;33.33;6.20;;;;;;;;;;6061723;23;20191;-88
2023/12/19 02:57:24;;;;;;;34.57;6.43;;;;;;;;;;6062609;23;20237;-90
2023/12/19 03:00:35;;;;;;;23.73;6.00;;;;;;;;;;6064013;23;20249;-84
2023/12/19 03:03:51;;;;;;;22.10;6.00;;;;;;;;;;6090044;23;20177;-90
2023/12/19 03:07:02;;;;;;;20.07;4.70;;;;;;;;;;6091310;23;20202;-88
2023/12/19 03:10:15;;;;;;;19.87;4.60;;;;;;;;;;6106302;23;20174;-88
2023/12/19 03:13:28;;;;;;;9.13;3.77;;;;;;;;;;6089699;23;20245;-91
2023/12/19 03:16:39;;;;;;;25.90;4.00;;;;;;;;;;6091429;23;20247;-89
2023/12/19 03:19:51;;;;;;;21.43;4.57;;;;;;;;;;6091079;23;20174;-92
2023/12/19 03:23:02;;;;;;;29.20;4.73;;;;;;;;;;6089086;23;20253;-88
2023/12/19 03:26:13;;;;;;;27.17;6.00;;;;;;;;;;6089655;23;20197;-88
2023/12/19 03:29:28;;;;;;;42.40;5.30;;;;;;;;;;6091139;23;20178;-90
2023/12/19 03:32:39;;;;;;;68.53;6.77;;;;;;;;;;6093029;23;20177;-87
2023/12/19 03:35:52;;;;;;;39.73;5.17;;;;;;;;;;6090319;23;20207;-86
2023/12/19 03:39:03;;;;;;;38.20;5.97;;;;;;;;;;6090976;23;20174;-91
2023/12/19 03:42:14;;;;;;;12.87;4.70;;;;;;;;;;6089398;23;20201;-87
2023/12/19 03:45:27;;;;;;;12.70;4.13;;;;;;;;;;6090421;23;20220;-87
2023/12/19 03:48:38;;;;;;;13.17;4.60;;;;;;;;;;6089919;23;20169;-91
2023/12/19 03:51:49;;;;;;;19.87;4.67;;;;;;;;;;6089626;23;20174;-87
2023/12/19 03:55:01;;;;;;;15.27;4.60;;;;;;;;;;6089546;23;20170;-89
2023/12/19 03:58:12;;;;;;;29.90;4.77;;;;;;;;;;6090353;23;20579;-89
2023/12/19 04:01:25;;;;;;;41.07;5.37;;;;;;;;;;6091276;23;20193;-87
2023/12/19 04:04:37;;;;;;;28.87;5.33;;;;;;;;;;6090452;23;20174;-88
2023/12/19 04:07:49;;;;;;;13.00;4.87;;;;;;;;;;6091193;23;20181;-86
2023/12/19 04:11:01;;;;;;;23.37;5.30;;;;;;;;;;6091462;23;20181;-90
2023/12/19 04:14:12;;;;;;;42.67;5.43;;;;;;;;;;6091139;23;20294;-89
2023/12/19 04:17:24;;;;;;;19.23;4.67;;;;;;;;;;6092656;23;20170;-85
2023/12/19 04:20:39;;;;;;;21.97;5.23;;;;;;;;;;6092818;23;20174;-88
2023/12/19 04:23:53;;;;;;;30.70;4.60;;;;;;;;;;6092805;23;20505;-87
2023/12/19 04:27:05;;;;;;;77.07;6.10;;;;;;;;;;6091046;23;20250;-87
2023/12/19 04:30:16;;;;;;;19.90;5.20;;;;;;;;;;6092171;23;20174;-88
2023/12/19 04:33:29;;;;;;;26.57;5.17;;;;;;;;;;6092955;23;20593;-86
2023/12/19 04:36:40;;;;;;;14.63;4.50;;;;;;;;;;6092731;23;20165;-87
2023/12/19 04:39:52;;;;;;;30.17;4.33;;;;;;;;;;6095042;23;20246;-89
2023/12/19 04:43:04;;;;;;;16.03;4.60;;;;;;;;;;6107629;23;20198;-90
2023/12/19 04:46:15;;;;;;;63.43;6.57;;;;;;;;;;6090276;23;20203;-88
2023/12/19 04:49:28;;;;;;;30.80;5.17;;;;;;;;;;6091435;23;20629;-90
2023/12/19 04:52:40;;;;;;;15.67;4.80;;;;;;;;;;6088975;23;20505;-87
2023/12/19 04:55:51;;;;;;;14.63;4.53;;;;;;;;;;6093138;23;20173;-88
2023/12/19 04:59:04;;;;;;;19.57;5.47;;;;;;;;;;6091460;23;20173;-87
2023/12/19 05:02:15;;;;;;;50.13;5.80;;;;;;;;;;6091041;23;20222;-90
2023/12/19 05:05:29;;;;;;;21.67;5.43;;;;;;;;;;6092616;23;20174;-90
2023/12/19 05:08:40;;;;;;;19.53;4.43;;;;;;;;;;6089759;23;20173;-90
2023/12/19 05:11:52;;;;;;;30.33;5.33;;;;;;;;;;6091887;23;20173;-89
2023/12/19 05:15:05;;;;;;;18.47;4.87;;;;;;;;;;6090151;23;20170;-90
2023/12/19 05:18:18;;;;;;;26.37;5.40;;;;;;;;;;6090449;23;20625;-86
2023/12/19 05:21:31;;;;;;;34.43;5.80;;;;;;;;;;6090490;23;20232;-88
2023/12/19 05:24:43;;;;;;;10.40;4.87;;;;;;;;;;6090105;23;20615;-89
2023/12/19 05:27:54;;;;;;;13.63;4.60;;;;;;;;;;6090205;23;20194;-85
2023/12/19 05:31:06;;;;;;;11.63;5.17;;;;;;;;;;6091530;23;20184;-89
2023/12/19 05:34:17;;;;;;;32.33;5.70;;;;;;;;;;6097638;23;20173;-87
2023/12/19 05:37:31;;;;;;;12.07;5.47;;;;;;;;;;6092914;23;20222;-88
2023/12/19 05:40:46;;;;;;;18.43;5.57;;;;;;;;;;6093367;23;20199;-89
2023/12/19 05:43:59;;;;;;;14.20;5.47;;;;;;;;;;6091866;23;20182;-89
2023/12/19 05:47:12;;;;;;;20.43;5.37;;;;;;;;;;6092177;23;20260;-86
2023/12/19 05:50:24;;;;;;;17.23;5.93;;;;;;;;;;6091336;23;20207;-91
2023/12/19 05:53:38;;;;;;;17.00;4.97;;;;;;;;;;6091751;23;20177;-88
2023/12/19 05:56:50;;;;;;;15.87;5.20;;;;;;;;;;6092990;23;20162;-88
2023/12/19 06:00:01;;;;;;;14.77;5.60;;;;;;;;;;6095247;23;20170;-88
2023/12/19 06:03:13;;;;;;;21.33;8.37;;;;;;;;;;6068240;23;20174;-90
2023/12/19 06:06:26;;;;;;;15.73;5.00;;;;;;;;;;6068831;23;20198;-91
2023/12/19 06:09:39;;;;;;;13.73;5.90;;;;;;;;;;6065723;23;20204;-88
2023/12/19 06:12:50;;;;;;;16.63;5.93;;;;;;;;;;6065003;23;20295;-89
2023/12/19 06:16:01;;;;;;;9.63;4.93;;;;;;;;;;6064275;23;20179;-84
2023/12/19 06:19:13;;;;;;;19.93;6.20;;;;;;;;;;6069943;23;20220;-90
2023/12/19 06:22:25;;;;;;;18.97;5.50;;;;;;;;;;6066251;23;20166;-87
2023/12/19 06:25:39;;;;;;;26.33;6.30;;;;;;;;;;6067402;23;20203;-91
2023/12/19 06:28:50;;;;;;;13.80;4.77;;;;;;;;;;6068897;23;20251;-89
2023/12/19 06:35:33;;;;;;;13.37;3.93;;;;;;;;;;6083291;23;20193;-89
2023/12/19 06:38:45;;;;;;;26.10;5.17;;;;;;;;;;6067764;23;20174;-87
2023/12/19 06:41:58;;;;;;;22.03;5.87;;;;;;;;;;6068408;23;20170;-87
2023/12/19 06:45:12;;;;;;;24.10;7.87;;;;;;;;;;6067430;23;20179;-87
2023/12/19 06:48:24;;;;;;;32.37;8.37;;;;;;;;;;6068393;23;20600;-90
2023/12/19 06:51:36;;;;;;;31.13;9.53;;;;;;;;;;6066192;23;20498;-89
2023/12/19 06:54:47;;;;;;;25.77;8.43;;;;;;;;;;6066820;23;20178;-88
2023/12/19 06:58:01;;;;;;;47.27;9.30;;;;;;;;;;6065978;23;20188;-91
2023/12/19 07:01:13;;;;;;;38.73;10.13;;;;;;;;;;6077938;23;20193;-92
2023/12/19 07:04:26;;;;;;;18.47;7.90;;;;;;;;;;6112678;23;20368;-86
2023/12/19 07:07:38;;;;;;;15.80;5.17;;;;;;;;;;6095950;23;20222;-87
2023/12/19 07:10:49;;;;;;;34.13;5.73;;;;;;;;;;6095642;23;20250;-87
2023/12/19 07:14:03;;;;;;;32.10;4.70;;;;;;;;;;6094466;23;20170;-90
2023/12/19 07:20:56;;;;;;;10.03;4.60;;;;;;;;;;6093452;23;20194;-90
2023/12/19 07:24:09;;;;;;;21.20;6.07;;;;;;;;;;6095042;23;20165;-89
2023/12/19 07:27:20;;;;;;;17.47;5.77;;;;;;;;;;6096277;23;20190;-87
2023/12/19 07:30:34;;;;;;;13.53;5.73;;;;;;;;;;6097072;23;20157;-89
2023/12/19 07:33:46;;;;;;;19.37;6.40;;;;;;;;;;6099112;23;20457;-89
2023/12/19 07:36:57;;;;;;;31.77;6.37;;;;;;;;;;6100049;23;20498;-90
2023/12/19 07:40:11;;;;;;;12.57;5.03;;;;;;;;;;6100986;23;20166;-89
2023/12/19 07:43:23;;;;;;;14.23;6.00;;;;;;;;;;6098018;23;20217;-87
2023/12/19 07:46:37;;;;;;;37.83;12.43;;;;;;;;;;6097866;23;20706;-90
2023/12/19 07:53:15;;;;;;;26.00;6.00;;;;;;;;;;6098437;23;20203;-90
2023/12/19 07:56:28;;;;;;;22.13;6.93;;;;;;;;;;6097314;23;20186;-88
2023/12/19 07:59:40;;;;;;;14.90;6.30;;;;;;;;;;6097764;23;20207;-91
2023/12/19 08:03:00;;;;;;;17.63;6.13;;;;;;;;;;6099068;23;20178;-88
2023/12/19 08:06:12;;;;;;;16.47;5.43;;;;;;;;;;6099409;23;20154;-89
2023/12/19 08:09:23;;;;;;;13.17;5.43;;;;;;;;;;6099614;23;20178;-87
2023/12/19 08:12:36;;;;;;;16.30;5.67;;;;;;;;;;6097752;23;20184;-88
2023/12/19 08:15:48;;;;;;;23.27;6.80;;;;;;;;;;6096933;23;20174;-87
2023/12/19 08:19:02;;;;;;;17.97;5.70;;;;;;;;;;6098592;23;20157;-87
2023/12/19 08:22:15;;;;;;;10.00;4.57;;;;;;;;;;6098439;23;20227;-87
2023/12/19 08:25:26;;;;;;;30.73;5.93;;;;;;;;;;6096846;23;20622;-88
2023/12/19 08:28:40;;;;;;;31.40;7.20;;;;;;;;;;6096823;23;20197;-86
2023/12/19 08:31:52;;;;;;;34.57;7.10;;;;;;;;;;6097376;23;20165;-89
2023/12/19 08:35:06;;;;;;;20.60;6.70;;;;;;;;;;6097461;23;20257;-89
2023/12/19 08:38:19;;;;;;;35.00;6.97;;;;;;;;;;6095144;23;20173;-87
2023/12/19 08:41:30;;;;;;;19.23;6.63;;;;;;;;;;6095975;23;20222;-88
2023/12/19 08:44:42;;;;;;;17.17;7.03;;;;;;;;;;6095687;23;20200;-87
2023/12/19 08:47:55;;;;;;;21.70;7.67;;;;;;;;;;6096348;23;20196;-90
2023/12/19 08:51:12;;;;;;;32.83;7.37;;;;;;;;;;6095289;23;20195;-87
2023/12/19 08:54:24;;;;;;;13.47;6.00;;;;;;;;;;6093582;23;20183;-89
2023/12/19 08:57:36;;;;;;;22.03;5.87;;;;;;;;;;6093685;23;20210;-88
2023/12/19 09:00:49;;;;;;;13.17;5.43;;;;;;;;;;6095846;23;20189;-88
2023/12/19 09:04:01;;;;;;;13.73;6.20;;;;;;;;;;6095619;23;20501;-89
2023/12/19 09:07:15;;;;;;;27.27;6.90;;;;;;;;;;6098451;23;20252;-88
2023/12/19 09:10:26;;;;;;;16.10;6.77;;;;;;;;;;6097000;23;20258;-89
2023/12/19 09:13:39;;;;;;;15.17;6.70;;;;;;;;;;6094544;23;20299;-88
2023/12/19 09:16:51;;;;;;;13.57;6.50;;;;;;;;;;6093139;23;20169;-88
2023/12/19 09:20:04;;;;;;;17.07;6.50;;;;;;;;;;6094093;23;20186;-88
2023/12/19 09:23:18;;;;;;;21.37;7.37;;;;;;;;;;6095279;23;20174;-89
2023/12/19 09:26:31;;;;;;;25.53;7.87;;;;;;;;;;6094865;23;20169;-86
2023/12/19 09:29:44;;;;;;;26.67;7.40;;;;;;;;;;6097173;23;20177;-87
2023/12/19 09:32:57;;;;;;;13.83;6.87;;;;;;;;;;6095540;23;20170;-89
2023/12/19 09:36:09;;;;;;;17.03;6.10;;;;;;;;;;6094683;23;20234;-89
2023/12/19 09:39:23;;;;;;;16.13;6.77;;;;;;;;;;6097463;23;20174;-84
2023/12/19 09:42:34;;;;;;;18.43;7.70;;;;;;;;;;6094248;23;20186;-89
2023/12/19 09:45:47;;;;;;;17.23;7.70;;;;;;;;;;6095661;23;20162;-90
2023/12/19 09:48:58;;;;;;;19.80;6.20;;;;;;;;;;6095305;23;20225;-87
2023/12/19 09:52:12;;;;;;;16.07;7.10;;;;;;;;;;6096944;23;20173;-85
2023/12/19 09:55:25;;;;;;;15.70;6.83;;;;;;;;;;6094574;23;20173;-91
2023/12/19 09:58:37;;;;;;;15.80;7.20;;;;;;;;;;6093468;23;20244;-87
2023/12/19 10:01:49;;;;;;;18.90;8.20;;;;;;;;;;6094120;23;20266;-85
2023/12/19 10:05:02;;;;;;;19.33;6.63;;;;;;;;;;6096721;23;20169;-87
2023/12/19 10:08:15;;;;;;;14.40;6.83;;;;;;;;;;6093271;23;20530;-88
2023/12/19 10:11:29;;;;;;;15.90;7.67;;;;;;;;;;6093316;23;20170;-87
2023/12/19 10:14:41;;;;;;;13.90;7.30;;;;;;;;;;6093662;23;20221;-88
2023/12/19 10:18:10;;;;;;;14.23;7.50;;;;;;;;;;6094366;23;20305;-88
2023/12/19 10:21:24;;;;;;;16.07;7.40;;;;;;;;;;6092356;23;20184;-85
2023/12/19 10:24:36;;;;;;;15.67;6.50;;;;;;;;;;6092149;23;20182;-91
2023/12/19 10:27:51;;;;;;;16.50;7.07;;;;;;;;;;6091847;23;20197;-86
2023/12/19 10:31:16;;;;;;;16.97;8.23;;;;;;;;;;6093631;23;20174;-91
2023/12/19 10:37:52;;;;;;;21.40;8.43;;;;;;;;;;6094343;23;20166;-87
2023/12/19 10:41:06;;;;;;;15.87;7.90;;;;;;;;;;6093590;23;20169;-87
2023/12/19 10:44:20;;;;;;;16.47;6.97;;;;;;;;;;6096643;23;20637;-89
2023/12/19 10:47:31;;;;;;;38.27;16.23;;;;;;;;;;6094808;23;20201;-90
2023/12/19 10:50:48;;;;;;;20.77;8.50;;;;;;;;;;6109367;23;20165;-89
2023/12/19 10:54:03;;;;;;;21.57;9.43;;;;;;;;;;6093575;23;20313;-92
2023/12/19 10:57:17;;;;;;;17.53;8.83;;;;;;;;;;6094663;23;20174;-89
2023/12/19 11:00:37;;;;;;;18.73;9.47;;;;;;;;;;6097714;23;20265;-88
2023/12/19 11:03:56;;;;;;;18.73;9.37;;;;;;;;;;6097426;23;20201;-88
2023/12/19 11:07:11;;;;;;;21.27;9.87;;;;;;;;;;6097886;23;20170;-87
2023/12/19 11:10:23;;;;;;;23.17;9.77;;;;;;;;;;6094688;23;20173;-91
2023/12/19 11:13:35;;;;;;;21.77;9.37;;;;;;;;;;6095044;23;20174;-89
2023/12/19 11:16:54;;;;;;;20.00;10.13;;;;;;;;;;6096074;23;20154;-90
2023/12/19 11:20:14;;;;;;;20.70;9.80;;;;;;;;;;6112674;23;20174;-87
2023/12/19 11:23:31;;;;;;;28.00;10.97;;;;;;;;;;6095372;23;20222;-88
2023/12/19 11:26:47;;;;;;;18.97;9.43;;;;;;;;;;6095367;23;20182;-87
2023/12/19 11:29:59;;;;;;;22.80;10.13;;;;;;;;;;6097244;23;20202;-91
2023/12/19 11:33:13;;;;;;;21.43;9.70;;;;;;;;;;6113802;23;20170;-88
2023/12/19 11:36:28;;;;;;;25.10;11.03;;;;;;;;;;6097297;23;20179;-89
2023/12/19 11:39:42;;;;;;;22.80;10.70;;;;;;;;;;6110635;23;20169;-87
2023/12/19 11:42:54;;;;;;;25.73;10.87;;;;;;;;;;6093726;23;20166;-91
2023/12/19 11:46:17;;;;;;;24.07;10.53;;;;;;;;;;6098008;23;20169;-88
2023/12/19 11:49:38;;;;;;;27.23;10.80;;;;;;;;;;6093513;23;20206;-87
2023/12/19 11:52:53;;;;;;;22.57;10.97;;;;;;;;;;6093984;23;20189;-92
2023/12/19 11:56:08;;;;;;;22.23;10.80;;;;;;;;;;6096517;23;20174;-89
2023/12/19 11:59:19;;;;;;;23.27;11.13;;;;;;;;;;6113812;23;20178;-89
2023/12/19 12:02:31;;;;;;;21.33;10.57;;;;;;;;;;6096906;23;20212;-86
2023/12/19 12:05:44;;;;;;;26.20;11.77;;;;;;;;;;6112031;23;20174;-86
2023/12/19 12:08:56;;;;;;;22.87;10.67;;;;;;;;;;6096139;23;20197;-87
2023/12/19 12:12:08;;;;;;;19.73;10.00;;;;;;;;;;6113263;23;20218;-89
2023/12/19 12:15:21;;;;;;;20.37;9.90;;;;;;;;;;6113486;23;20166;-89
2023/12/19 12:18:33;;;;;;;56.23;20.60;;;;;;;;;;6111899;23;20173;-87
2023/12/19 12:21:47;;;;;;;25.93;12.10;;;;;;;;;;6096972;23;20174;-91
2023/12/19 12:25:00;;;;;;;20.37;9.80;;;;;;;;;;6096068;23;20158;-89
2023/12/19 12:28:17;;;;;;;17.20;9.43;;;;;;;;;;6098710;23;20177;-87
2023/12/19 12:31:29;;;;;;;18.57;8.60;;;;;;;;;;6097047;23;20174;-90
2023/12/19 12:34:40;;;;;;;18.37;9.67;;;;;;;;;;6098122;23;20173;-89
2023/12/19 12:37:57;;;;;;;19.80;10.20;;;;;;;;;;6098272;23;20670;-89
2023/12/19 12:41:09;;;;;;;16.30;8.40;;;;;;;;;;6096745;23;20170;-90
2023/12/19 12:44:21;;;;;;;19.30;10.00;;;;;;;;;;6095999;23;20186;-89
2023/12/19 12:47:37;;;;;;;16.00;7.93;;;;;;;;;;6100522;23;20173;-86
2023/12/19 18:43:36;;;;;;;37.47;10.97;;;;;;;;;;5932750;23;20208;-85
2023/12/19 18:46:49;;;;;;;57.07;13.63;;;;;;;;;;5954746;23;20161;-86
2023/12/19 18:50:00;;;;;;;97.50;27.67;;;;;;;;;;5985004;23;20549;-90
2023/12/19 18:53:11;;;;;;;62.37;13.93;;;;;;;;;;5984071;24;20294;-88
2023/12/19 18:56:24;;;;;;;104.80;22.57;;;;;;;;;;5968779;24;20292;-91
2023/12/19 18:59:37;;;;;;;335.83;87.80;;;;;;;;;;5970119;23;20172;-88
2023/12/19 19:02:50;;;;;;;43.67;11.53;;;;;;;;;;5956554;23;20195;-89
2023/12/19 19:06:03;;;;;;;55.17;10.90;;;;;;;;;;5971419;24;20295;-88
2023/12/19 19:09:15;;;;;;;30.63;11.13;;;;;;;;;;5986406;23;20242;-89
2023/12/19 19:12:28;;;;;;;32.53;11.23;;;;;;;;;;5983734;23;20186;-88
2023/12/19 19:15:42;;;;;;;45.43;11.33;;;;;;;;;;5968443;24;20210;-86
2023/12/19 19:18:54;;;;;;;30.07;11.40;;;;;;;;;;5984539;24;20173;-90
2023/12/19 19:22:07;;;;;;;32.43;11.77;;;;;;;;;;5969030;24;20618;-90
2023/12/19 19:25:18;;;;;;;27.23;9.57;;;;;;;;;;5968812;24;20176;-86
2023/12/19 19:28:31;;;;;;;23.87;9.20;;;;;;;;;;5985047;24;20204;-86
2023/12/19 19:31:46;;;;;;;28.30;10.60;;;;;;;;;;5985821;24;20579;-89
2023/12/19 19:34:58;;;;;;;37.97;14.90;;;;;;;;;;5972066;23;20231;-89
2023/12/19 19:38:11;;;;;;;22.37;9.47;;;;;;;;;;5983732;24;20197;-88
2023/12/19 19:41:25;;;;;;;24.13;10.97;;;;;;;;;;5984467;24;20238;-88
2023/12/19 19:44:37;;;;;;;28.90;10.83;;;;;;;;;;5985259;24;20190;-91
2023/12/19 19:47:50;;;;;;;36.33;13.17;;;;;;;;;;5971307;23;20169;-89
2023/12/19 19:51:03;;;;;;;32.13;11.27;;;;;;;;;;5970981;24;20173;-88
2023/12/19 19:54:15;;;;;;;33.37;11.53;;;;;;;;;;5986257;23;20171;-86
2023/12/19 19:57:27;;;;;;;34.40;12.33;;;;;;;;;;5989885;23;20227;-88
2023/12/19 20:00:40;;;;;;;32.07;12.90;;;;;;;;;;5988806;23;20200;-90
2023/12/19 20:03:53;;;;;;;51.03;20.57;;;;;;;;;;5970940;24;20153;-88
2023/12/19 20:07:06;;;;;;;39.60;12.90;;;;;;;;;;5969798;23;20174;-91
2023/12/19 20:10:21;;;;;;;38.63;13.73;;;;;;;;;;5973840;24;20197;-87
2023/12/19 20:13:49;;;;;;;38.73;11.37;;;;;;;;;;5971830;23;20177;-86
2023/12/19 20:17:03;;;;;;;42.13;10.90;;;;;;;;;;5955721;23;20218;-86
2023/12/19 20:20:17;;;;;;;34.27;10.50;;;;;;;;;;5987490;23;20199;-88
2023/12/19 20:23:29;;;;;;;36.80;10.57;;;;;;;;;;5988068;23;20182;-88
2023/12/19 20:26:42;;;;;;;26.90;11.47;;;;;;;;;;5989426;23;20173;-88
2023/12/19 20:29:54;;;;;;;25.13;11.33;;;;;;;;;;5984911;24;20197;-90
2023/12/19 20:33:05;;;;;;;27.93;9.77;;;;;;;;;;5984699;23;20177;-88
2023/12/19 20:36:23;;;;;;;39.73;13.67;;;;;;;;;;5984424;23;20216;-87
2023/12/19 20:39:34;;;;;;;39.30;10.97;;;;;;;;;;5971417;24;20258;-86
2023/12/19 20:42:47;;;;;;;50.30;10.77;;;;;;;;;;5970399;24;20212;-88
2023/12/19 20:45:58;;;;;;;36.83;10.60;;;;;;;;;;5987365;23;20174;-86
2023/12/19 20:49:11;;;;;;;43.10;13.67;;;;;;;;;;5986650;23;20205;-88
2023/12/19 20:52:24;;;;;;;50.83;16.53;;;;;;;;;;5972258;24;20246;-88
2023/12/19 20:55:37;;;;;;;50.67;13.60;;;;;;;;;;5957209;23;20530;-88
2023/12/19 20:58:51;;;;;;;73.87;14.00;;;;;;;;;;5985892;24;20173;-89
2023/12/19 21:02:02;;;;;;;31.90;13.53;;;;;;;;;;5986096;23;20263;-85
2023/12/19 21:05:15;;;;;;;35.23;13.37;;;;;;;;;;5971672;24;20230;-90
2023/12/19 21:08:28;;;;;;;34.97;12.20;;;;;;;;;;5986691;23;20221;-87
2023/12/19 21:11:40;;;;;;;36.30;11.90;;;;;;;;;;5955610;23;20173;-87
2023/12/19 21:14:57;;;;;;;24.20;10.07;;;;;;;;;;5970556;23;20188;-90
2023/12/19 21:18:08;;;;;;;51.97;11.73;;;;;;;;;;5987172;23;20500;-87
2023/12/19 21:21:22;;;;;;;83.83;13.67;;;;;;;;;;5985036;23;20172;-88
2023/12/19 21:24:35;;;;;;;37.63;11.83;;;;;;;;;;5956024;24;20156;-85
2023/12/19 21:27:47;;;;;;;51.67;12.90;;;;;;;;;;5983730;23;20165;-89
2023/12/19 21:31:00;;;;;;;70.40;11.90;;;;;;;;;;5983394;24;20189;-90
2023/12/19 21:34:12;;;;;;;54.17;11.00;;;;;;;;;;5985849;24;20173;-93
2023/12/19 21:37:25;;;;;;;93.73;12.50;;;;;;;;;;5970348;23;20181;-86
2023/12/19 21:40:39;;;;;;;55.90;11.10;;;;;;;;;;5983535;23;20181;-88
2023/12/19 21:43:51;;;;;;;34.70;9.87;;;;;;;;;;5954278;24;20244;-85
2023/12/19 21:47:03;;;;;;;107.67;9.90;;;;;;;;;;5983276;23;20237;-87
2023/12/19 21:50:15;;;;;;;38.17;9.53;;;;;;;;;;5984779;23;20200;-88
2023/12/19 21:53:32;;;;;;;58.63;10.23;;;;;;;;;;5968720;23;20173;-88
2023/12/19 21:56:46;;;;;;;66.63;12.50;;;;;;;;;;5983830;23;20177;-90
2023/12/19 21:59:58;;;;;;;52.07;10.47;;;;;;;;;;5971708;23;20207;-90
2023/12/19 22:03:10;;;;;;;64.40;10.83;;;;;;;;;;5986012;23;20172;-88
2023/12/19 22:06:21;;;;;;;66.23;10.40;;;;;;;;;;5969324;23;20181;-89
2023/12/19 22:09:34;;;;;;;70.60;10.60;;;;;;;;;;5985746;23;20219;-89
2023/12/19 22:12:47;;;;;;;91.53;9.83;;;;;;;;;;5985102;23;20177;-89
2023/12/19 22:15:58;;;;;;;121.20;11.00;;;;;;;;;;5983451;24;20173;-88
2023/12/19 22:19:09;;;;;;;38.53;9.03;;;;;;;;;;5969458;23;20177;-90
2023/12/19 22:22:21;;;;;;;63.23;10.30;;;;;;;;;;5984475;23;20185;-89
2023/12/19 22:25:34;;;;;;;59.57;9.83;;;;;;;;;;5986176;23;20172;-85
2023/12/19 22:28:47;;;;;;;73.50;10.10;;;;;;;;;;5968858;24;20179;-89
2023/12/19 22:31:59;;;;;;;65.40;9.97;;;;;;;;;;5967502;24;20172;-88
2023/12/19 22:35:10;;;;;;;46.73;10.37;;;;;;;;;;5981288;24;20168;-87
2023/12/19 22:38:21;;;;;;;62.63;9.50;;;;;;;;;;5982297;24;20181;-87
2023/12/19 22:41:33;;;;;;;98.87;9.93;;;;;;;;;;5981934;23;20254;-89
2023/12/19 22:44:47;;;;;;;80.73;11.07;;;;;;;;;;5954036;24;20226;-90
2023/12/19 22:47:58;;;;;;;49.90;10.00;;;;;;;;;;5982143;24;20626;-90
2023/12/19 22:51:10;;;;;;;68.27;10.33;;;;;;;;;;5984576;24;20188;-91
2023/12/19 22:54:23;;;;;;;39.63;9.03;;;;;;;;;;5980336;24;20193;-88
2023/12/19 22:57:35;;;;;;;30.40;8.53;;;;;;;;;;5981698;24;20174;-86
2023/12/19 23:00:48;;;;;;;49.63;10.00;;;;;;;;;;5967954;24;20251;-89
2023/12/19 23:03:59;;;;;;;36.97;9.17;;;;;;;;;;5970974;23;20618;-89
2023/12/19 23:07:12;;;;;;;63.20;9.70;;;;;;;;;;5988366;23;20226;-85
2023/12/19 23:13:49;;;;;;;23.23;8.47;;;;;;;;;;5958020;23;20232;-89
2023/12/19 23:17:06;;;;;;;33.27;7.83;;;;;;;;;;5959824;23;20246;-89
2023/12/19 23:20:17;;;;;;;23.80;7.67;;;;;;;;;;5970075;24;20161;-89
2023/12/19 23:23:29;;;;;;;13.23;6.87;;;;;;;;;;5985311;23;20203;-90
2023/12/19 23:26:40;;;;;;;14.97;6.90;;;;;;;;;;5969059;23;20214;-89
2023/12/19 23:29:52;;;;;;;12.13;6.27;;;;;;;;;;5968544;24;20196;-88
2023/12/19 23:33:06;;;;;;;10.30;5.70;;;;;;;;;;5968705;24;20176;-84
2023/12/19 23:36:18;;;;;;;12.10;6.10;;;;;;;;;;5985015;24;20174;-87
2023/12/19 23:39:30;;;;;;;13.20;6.93;;;;;;;;;;5984754;23;20173;-88
2023/12/19 23:42:41;;;;;;;11.87;5.93;;;;;;;;;;5971295;23;20315;-89
2023/12/19 23:45:53;;;;;;;8.57;5.10;;;;;;;;;;5983197;23;20634;-88
2023/12/19 23:49:08;;;;;;;14.60;6.83;;;;;;;;;;5985124;23;20169;-90
2023/12/19 23:52:20;;;;;;;12.40;6.13;;;;;;;;;;5984910;23;20178;-88
2023/12/19 23:55:32;;;;;;;16.63;7.00;;;;;;;;;;5971801;23;20178;-89
2023/12/19 23:58:43;;;;;;;16.40;7.40;;;;;;;;;;5985377;23;20203;-91
